Time;durP1;ratioP1;P1;durP2;ratioP2;P2;SDS_P1;SDS_P2;PMS_P1;PMS_P2;Temp;Humidity;BMP_temperature;BMP_pressure;BME280_temperature;BME280_humidity;BME280_pressure;Samples;Min_cycle;Max_cycle;Signal;HPM_P1;HPM_P2
2022/10/23 00:00:34;;;;;;;32.92;22.23;;;10.60;99.90;;;;;;4948967;28;20057;-68
2022/10/23 00:03:00;;;;;;;37.10;22.65;;;10.60;99.90;;;;;;4966218;28;20054;-68
2022/10/23 00:05:27;;;;;;;35.83;22.38;;;10.90;99.90;;;;;;4959884;28;20042;-67
2022/10/23 00:07:55;;;;;;;32.00;22.40;;;10.70;99.90;;;;;;4952867;28;20053;-68
2022/10/23 00:10:22;;;;;;;34.38;22.08;;;10.80;99.90;;;;;;4947822;29;20058;-67
2022/10/23 00:12:49;;;;;;;32.45;22.42;;;10.80;99.90;;;;;;4948017;29;20181;-68
2022/10/23 00:15:17;;;;;;;28.77;22.30;;;10.90;99.90;;;;;;4946394;29;20047;-68
2022/10/23 00:17:43;;;;;;;37.10;22.58;;;10.70;99.90;;;;;;4947406;29;20057;-68
2022/10/23 00:20:10;;;;;;;32.55;22.38;;;10.60;99.90;;;;;;4930544;29;20039;-68
2022/10/23 00:22:36;;;;;;;35.78;23.48;;;10.60;99.90;;;;;;4930880;29;20054;-67
2022/10/23 00:25:07;;;;;;;31.23;21.17;;;10.80;99.90;;;;;;4946980;29;20046;-67
2022/10/23 00:27:32;;;;;;;34.67;23.13;;;10.80;99.90;;;;;;4947910;29;20442;-67
2022/10/23 00:29:58;;;;;;;37.42;23.65;;;10.60;99.90;;;;;;4947189;29;20055;-68
2022/10/23 00:32:24;;;;;;;35.08;23.27;;;10.60;99.90;;;;;;4947248;29;20521;-68
2022/10/23 00:34:50;;;;;;;35.20;22.90;;;10.70;99.90;;;;;;4947487;29;20134;-68
2022/10/23 00:37:15;;;;;;;35.60;23.20;;;10.60;99.90;;;;;;4947399;29;20051;-68
2022/10/23 00:39:41;;;;;;;31.08;22.63;;;10.60;99.90;;;;;;4947154;29;20043;-68
2022/10/23 00:42:09;;;;;;;33.58;23.38;;;10.70;99.90;;;;;;4947631;29;20134;-68
2022/10/23 00:44:34;;;;;;;33.65;23.27;;;10.50;99.90;;;;;;4946834;29;20047;-67
2022/10/23 00:47:00;;;;;;;35.80;24.80;;;10.50;99.90;;;;;;4947285;29;20054;-68
2022/10/23 00:49:27;;;;;;;36.13;24.48;;;10.70;99.90;;;;;;4945998;28;20039;-67
2022/10/23 00:51:57;;;;;;;33.15;24.13;;;10.60;99.90;;;;;;4947211;29;20652;-68
2022/10/23 00:54:26;;;;;;;36.30;25.75;;;10.60;99.90;;;;;;4962159;28;20146;-68
2022/10/23 00:56:55;;;;;;;39.75;26.40;;;10.50;99.90;;;;;;4945433;29;20378;-68
2022/10/23 00:59:21;;;;;;;43.67;24.85;;;10.60;99.90;;;;;;4946804;29;20195;-68
2022/10/23 01:01:47;;;;;;;37.40;23.85;;;10.70;99.90;;;;;;4947458;29;20627;-68
2022/10/23 01:04:13;;;;;;;40.08;24.23;;;10.60;99.90;;;;;;4946181;28;20053;-68
2022/10/23 01:06:51;;;;;;;32.38;23.35;;;10.70;99.90;;;;;;4957931;28;20075;-68
2022/10/23 01:09:28;;;;;;;34.85;22.40;;;10.70;99.90;;;;;;4929474;29;20047;-68
2022/10/23 01:12:12;;;;;;;32.60;22.02;;;10.90;99.90;;;;;;4946060;28;20043;-68
2022/10/23 01:15:10;;;;;;;31.93;22.50;;;10.70;99.90;;;;;;4944860;29;20059;-68
2022/10/23 01:17:52;;;;;;;30.08;20.85;;;10.80;99.90;;;;;;4947260;29;20106;-68
2022/10/23 01:20:27;;;;;;;34.00;22.13;;;10.80;99.90;;;;;;4945954;29;20449;-68
2022/10/23 01:23:21;;;;;;;31.95;21.88;;;10.70;99.90;;;;;;4961681;28;20113;-67
2022/10/23 01:25:55;;;;;;;30.88;21.90;;;10.90;99.90;;;;;;4945952;28;20050;-68
2022/10/23 01:28:28;;;;;;;33.92;22.52;;;10.70;99.90;;;;;;4946669;29;20053;-68
2022/10/23 01:30:56;;;;;;;35.92;22.23;;;10.70;99.90;;;;;;4945371;29;20406;-68
2022/10/23 01:33:28;;;;;;;34.17;21.65;;;10.60;99.90;;;;;;4946126;29;20138;-68
2022/10/23 01:36:02;;;;;;;36.47;21.88;;;10.80;99.90;;;;;;4946535;29;20043;-68
2022/10/23 01:38:39;;;;;;;37.83;22.67;;;10.70;99.90;;;;;;4945576;29;20542;-67
2022/10/23 01:41:37;;;;;;;31.15;21.90;;;10.70;99.90;;;;;;4947321;29;20046;-68
2022/10/23 01:44:12;;;;;;;28.08;21.83;;;10.60;99.90;;;;;;4937561;29;20073;-68
2022/10/23 01:46:39;;;;;;;33.08;22.40;;;10.80;99.90;;;;;;4945582;29;20262;-67
2022/10/23 01:49:08;;;;;;;28.00;21.92;;;10.50;99.90;;;;;;4945889;29;20082;-68
2022/10/23 01:51:35;;;;;;;32.03;22.80;;;10.60;99.90;;;;;;4946048;29;20043;-67
2022/10/23 01:54:04;;;;;;;30.13;21.58;;;10.70;99.90;;;;;;4946146;28;20474;-68
2022/10/23 01:56:35;;;;;;;32.05;21.70;;;10.50;99.90;;;;;;4928269;29;20580;-67
2022/10/23 01:59:07;;;;;;;29.02;21.73;;;10.50;99.90;;;;;;4945239;29;20043;-68
2022/10/23 02:01:35;;;;;;;30.83;21.65;;;10.60;99.90;;;;;;4944839;28;20054;-67
2022/10/23 02:04:04;;;;;;;31.15;21.13;;;10.50;99.90;;;;;;4944662;29;20062;-68
2022/10/23 02:06:30;;;;;;;29.65;22.25;;;10.50;99.90;;;;;;4964391;28;20433;-68
2022/10/23 02:08:56;;;;;;;32.05;21.80;;;10.40;99.90;;;;;;4965566;28;20043;-68
2022/10/23 02:11:22;;;;;;;30.45;22.02;;;10.30;99.90;;;;;;4965134;28;20054;-68
2022/10/23 02:14:00;;;;;;;32.72;22.60;;;10.40;99.90;;;;;;4964639;28;20043;-68
2022/10/23 02:16:41;;;;;;;32.33;21.83;;;10.40;99.90;;;;;;4946555;28;20047;-68
2022/10/23 02:19:28;;;;;;;32.80;21.70;;;10.30;99.90;;;;;;4929084;29;20773;-68
2022/10/23 02:22:25;;;;;;;28.63;20.77;;;10.20;99.90;;;;;;4945501;29;20051;-68
2022/10/23 02:25:00;;;;;;;31.17;21.85;;;10.40;99.90;;;;;;4928584;29;20118;-68
2022/10/23 02:27:36;;;;;;;33.80;22.65;;;10.40;99.90;;;;;;4927037;29;20047;-68
2022/10/23 02:30:07;;;;;;;33.65;23.23;;;10.40;99.90;;;;;;4927852;29;20110;-67
2022/10/23 02:32:34;;;;;;;30.88;22.17;;;10.40;99.90;;;;;;4945267;29;20497;-68
2022/10/23 02:35:00;;;;;;;33.38;24.27;;;10.30;99.90;;;;;;4944540;29;20047;-68
2022/10/23 02:37:26;;;;;;;32.85;23.92;;;10.20;99.90;;;;;;4945722;29;20035;-68
2022/10/23 02:39:52;;;;;;;34.10;23.85;;;10.10;99.90;;;;;;4945607;29;20493;-68
2022/10/23 02:42:41;;;;;;;33.22;23.45;;;10.40;99.90;;;;;;4927868;29;20047;-68
2022/10/23 02:45:43;;;;;;;34.78;23.20;;;10.10;99.90;;;;;;4945287;29;20055;-68
2022/10/23 02:48:15;;;;;;;32.85;23.65;;;10.10;99.90;;;;;;4942077;29;20055;-68
2022/10/23 02:51:01;;;;;;;32.85;23.88;;;10.20;99.90;;;;;;4928316;29;20521;-68
2022/10/23 02:54:11;;;;;;;34.60;24.10;;;10.20;99.90;;;;;;4944742;29;20047;-68
2022/10/23 02:56:55;;;;;;;34.65;23.48;;;10.20;99.90;;;;;;4944040;29;20187;-68
2022/10/23 03:00:01;;;;;;;32.75;22.30;;;10.10;99.90;;;;;;4926784;29;20680;-68
2022/10/23 03:02:32;;;;;;;28.90;22.65;;;10.00;99.90;;;;;;4944524;29;20792;-67
2022/10/23 03:05:00;;;;;;;31.05;21.80;;;10.10;99.90;;;;;;4944622;28;20051;-68
2022/10/23 03:07:26;;;;;;;24.98;20.95;;;10.10;99.90;;;;;;4944017;28;20097;-68
2022/10/23 03:09:52;;;;;;;39.28;22.85;;;10.00;99.90;;;;;;4944764;29;20055;-67
2022/10/23 03:12:17;;;;;;;28.70;22.27;;;10.10;99.90;;;;;;4942555;29;20586;-68
2022/10/23 03:14:43;;;;;;;27.25;20.73;;;10.10;99.90;;;;;;4944388;28;20146;-68
2022/10/23 03:17:09;;;;;;;25.60;20.35;;;9.90;99.90;;;;;;4944997;29;20194;-68
2022/10/23 03:19:34;;;;;;;26.50;20.50;;;10.20;99.90;;;;;;4946660;28;20066;-68
2022/10/23 03:22:00;;;;;;;26.63;19.52;;;10.10;99.90;;;;;;4964186;28;20047;-68
2022/10/23 03:24:26;;;;;;;22.80;17.95;;;10.10;99.90;;;;;;4964257;28;20081;-68
2022/10/23 03:26:51;;;;;;;22.23;18.02;;;10.20;99.90;;;;;;4963545;28;20659;-68
2022/10/23 03:29:17;;;;;;;21.25;17.10;;;10.10;99.90;;;;;;4962893;28;20753;-68
2022/10/23 03:31:43;;;;;;;22.33;16.48;;;10.10;99.90;;;;;;4964774;28;20057;-68
2022/10/23 03:34:10;;;;;;;22.45;16.25;;;10.10;99.90;;;;;;4964547;28;20490;-69
2022/10/23 03:36:36;;;;;;;20.45;15.82;;;10.00;99.90;;;;;;4963724;28;20135;-68
2022/10/23 03:39:03;;;;;;;21.38;16.63;;;10.00;99.90;;;;;;4963668;28;20063;-68
2022/10/23 03:41:29;;;;;;;17.95;15.65;;;10.10;99.90;;;;;;4964042;28;20047;-68
2022/10/23 03:43:54;;;;;;;20.52;17.08;;;10.20;99.90;;;;;;4963719;28;20406;-67
2022/10/23 03:46:20;;;;;;;22.35;17.15;;;10.10;99.90;;;;;;4963330;28;20110;-68
2022/10/23 03:48:46;;;;;;;24.90;18.17;;;10.40;99.90;;;;;;4946337;28;20055;-68
2022/10/23 03:51:11;;;;;;;22.85;17.38;;;10.20;99.90;;;;;;4964428;28;20398;-68
2022/10/23 03:53:37;;;;;;;27.65;17.33;;;10.40;99.90;;;;;;4963701;28;20166;-68
2022/10/23 03:56:03;;;;;;;23.70;16.65;;;10.30;99.90;;;;;;4963029;28;20057;-68
2022/10/23 03:58:30;;;;;;;21.13;16.67;;;10.40;99.90;;;;;;4963204;28;20053;-68
2022/10/23 04:00:56;;;;;;;22.90;16.35;;;10.40;99.90;;;;;;4963812;28;20074;-68
2022/10/23 04:03:22;;;;;;;23.08;16.48;;;10.30;99.90;;;;;;4963426;28;20129;-68
2022/10/23 04:05:48;;;;;;;25.40;18.45;;;10.30;99.90;;;;;;4933044;29;20049;-68
2022/10/23 04:08:14;;;;;;;23.20;17.70;;;10.40;99.90;;;;;;4944372;29;20668;-67
2022/10/23 04:10:39;;;;;;;24.38;17.25;;;10.40;99.90;;;;;;4944399;29;20039;-68
2022/10/23 04:13:05;;;;;;;26.70;18.67;;;10.20;99.90;;;;;;4943768;29;20144;-67
2022/10/23 04:15:31;;;;;;;23.83;18.02;;;10.30;99.90;;;;;;4952901;28;20098;-68
2022/10/23 04:17:56;;;;;;;28.70;18.67;;;10.40;99.90;;;;;;4963371;28;20043;-69
2022/10/23 04:20:22;;;;;;;27.23;18.25;;;10.30;99.90;;;;;;4962334;28;20047;-68
2022/10/23 04:22:48;;;;;;;26.13;19.80;;;10.20;99.90;;;;;;4963675;28;20944;-68
2022/10/23 04:25:15;;;;;;;25.48;18.70;;;10.40;99.90;;;;;;4966220;28;20422;-68
2022/10/23 04:27:41;;;;;;;28.40;18.83;;;10.30;99.90;;;;;;4966584;28;20082;-68
2022/10/23 04:30:07;;;;;;;23.27;18.35;;;10.20;99.90;;;;;;4965420;28;20105;-67
2022/10/23 04:32:33;;;;;;;30.73;19.58;;;10.20;99.90;;;;;;4966528;28;20058;-68
2022/10/23 04:34:58;;;;;;;22.77;18.05;;;10.20;99.90;;;;;;4965779;28;20053;-67
2022/10/23 04:37:24;;;;;;;25.65;18.08;;;10.30;99.90;;;;;;4964799;28;20081;-68
2022/10/23 04:39:50;;;;;;;26.10;19.52;;;10.30;99.90;;;;;;4965607;28;20106;-68
2022/10/23 04:42:15;;;;;;;26.10;19.48;;;10.30;99.90;;;;;;4949254;28;20057;-68
2022/10/23 04:44:41;;;;;;;29.48;19.05;;;10.20;99.90;;;;;;4964858;28;20042;-67
2022/10/23 04:47:06;;;;;;;24.80;18.30;;;10.00;99.90;;;;;;4947727;28;20066;-68
2022/10/23 04:49:32;;;;;;;24.27;19.60;;;10.10;99.90;;;;;;4948354;28;20085;-67
2022/10/23 04:51:58;;;;;;;29.90;20.17;;;10.20;99.90;;;;;;4965679;28;20042;-68
2022/10/23 04:54:23;;;;;;;28.73;20.98;;;10.10;99.90;;;;;;4948224;28;20066;-67
2022/10/23 04:56:49;;;;;;;30.75;21.00;;;10.20;99.90;;;;;;4964807;28;20050;-68
2022/10/23 04:59:14;;;;;;;30.10;22.13;;;10.10;99.90;;;;;;4965860;28;20070;-68
2022/10/23 05:01:40;;;;;;;36.05;22.15;;;10.30;99.90;;;;;;4966011;28;20387;-68
2022/10/23 05:04:06;;;;;;;33.42;23.35;;;10.10;99.90;;;;;;4965437;28;20071;-68
2022/10/23 05:06:31;;;;;;;34.63;22.05;;;10.20;99.90;;;;;;4965461;28;20035;-68
2022/10/23 05:08:57;;;;;;;30.85;22.02;;;10.30;99.90;;;;;;4965650;28;20682;-68
2022/10/23 05:11:23;;;;;;;28.30;22.13;;;10.30;99.90;;;;;;4966141;28;21124;-68
2022/10/23 05:13:48;;;;;;;31.33;23.30;;;10.40;99.90;;;;;;4965003;28;20478;-67
2022/10/23 05:16:32;;;;;;;33.35;23.38;;;10.20;99.90;;;;;;4965605;28;20078;-68
2022/10/23 05:18:58;;;;;;;32.22;23.05;;;10.40;99.90;;;;;;4965207;28;20151;-68
2022/10/23 05:21:28;;;;;;;31.30;23.35;;;10.20;99.90;;;;;;4965732;28;20269;-68
2022/10/23 05:23:54;;;;;;;31.70;22.55;;;10.20;99.90;;;;;;4965793;28;20705;-68
2022/10/23 05:26:21;;;;;;;27.35;21.60;;;10.20;99.90;;;;;;4948405;28;20130;-68
2022/10/23 05:28:47;;;;;;;33.70;23.02;;;10.20;99.90;;;;;;4947196;28;20113;-68
2022/10/23 05:31:14;;;;;;;31.10;23.58;;;10.30;99.90;;;;;;4965476;28;20129;-68
2022/10/23 05:33:40;;;;;;;33.10;21.65;;;10.30;99.90;;;;;;4965703;28;20138;-68
2022/10/23 05:36:07;;;;;;;33.22;23.90;;;10.20;99.90;;;;;;4965097;28;20042;-68
2022/10/23 05:38:34;;;;;;;37.95;23.17;;;10.40;99.90;;;;;;4965966;28;20462;-68
2022/10/23 05:41:00;;;;;;;31.58;22.80;;;10.10;99.90;;;;;;4965706;28;20441;-67
2022/10/23 05:43:26;;;;;;;32.00;22.98;;;10.20;99.90;;;;;;4965307;28;20129;-68
2022/10/23 05:45:52;;;;;;;33.80;23.63;;;10.20;99.90;;;;;;4948110;28;20636;-67
2022/10/23 05:48:18;;;;;;;32.67;23.13;;;10.20;99.90;;;;;;4965583;28;20042;-67
2022/10/23 05:50:43;;;;;;;34.45;22.90;;;10.30;99.90;;;;;;4965359;28;20046;-68
2022/10/23 05:53:10;;;;;;;31.73;23.08;;;10.20;99.90;;;;;;4964456;28;20046;-67
2022/10/23 05:55:35;;;;;;;33.97;24.30;;;10.10;99.90;;;;;;4965262;28;20038;-67
2022/10/23 05:58:02;;;;;;;34.33;23.38;;;10.10;99.90;;;;;;4947616;28;20043;-67
2022/10/23 06:00:28;;;;;;;34.05;24.05;;;10.00;99.90;;;;;;4948473;28;20093;-67
2022/10/23 06:02:53;;;;;;;34.20;23.40;;;10.10;99.90;;;;;;4964548;28;20078;-68
2022/10/23 06:05:19;;;;;;;33.80;24.05;;;10.40;99.90;;;;;;4965038;28;20038;-67
2022/10/23 06:07:45;;;;;;;38.03;23.73;;;10.10;99.90;;;;;;4965151;28;20472;-67
2022/10/23 06:10:11;;;;;;;34.25;23.40;;;10.00;99.90;;;;;;4964778;28;20038;-68
2022/10/23 06:12:36;;;;;;;33.00;24.00;;;10.10;99.90;;;;;;4964728;28;20381;-69
2022/10/23 06:15:03;;;;;;;36.38;23.58;;;10.20;99.90;;;;;;4963761;28;20050;-71
2022/10/23 06:17:29;;;;;;;32.63;22.73;;;10.20;99.90;;;;;;4965319;28;20606;-69
2022/10/23 06:20:01;;;;;;;31.73;22.83;;;10.10;99.90;;;;;;4947195;28;20054;-69
2022/10/23 06:22:27;;;;;;;33.20;22.02;;;10.10;99.90;;;;;;4964294;28;20041;-69
2022/10/23 06:24:54;;;;;;;37.25;22.60;;;10.10;99.90;;;;;;4965164;28;20047;-71
2022/10/23 06:27:19;;;;;;;32.10;23.00;;;10.20;99.90;;;;;;4946767;28;20573;-69
2022/10/23 06:29:45;;;;;;;30.70;21.75;;;10.20;99.90;;;;;;4963970;28;20129;-69
2022/10/23 06:32:11;;;;;;;32.38;22.63;;;10.10;99.90;;;;;;4946957;28;20132;-70
2022/10/23 06:34:37;;;;;;;33.38;22.67;;;10.30;99.90;;;;;;4947223;28;20097;-70
2022/10/23 06:37:02;;;;;;;32.35;21.25;;;10.10;99.90;;;;;;4964112;28;20049;-70
2022/10/23 06:39:28;;;;;;;30.88;21.30;;;10.20;99.90;;;;;;4964430;28;20073;-68
2022/10/23 06:41:54;;;;;;;31.42;20.83;;;10.20;99.90;;;;;;4964767;28;20038;-69
2022/10/23 06:44:19;;;;;;;30.30;21.38;;;10.20;99.90;;;;;;4963208;28;20047;-69
2022/10/23 06:46:48;;;;;;;34.95;20.98;;;10.20;99.90;;;;;;4946953;28;20047;-69
2022/10/23 06:49:16;;;;;;;29.67;20.33;;;10.20;99.90;;;;;;4947162;28;20058;-69
2022/10/23 06:51:42;;;;;;;32.53;21.63;;;10.30;99.90;;;;;;4964388;28;20117;-68
2022/10/23 06:54:10;;;;;;;28.95;20.08;;;10.20;99.90;;;;;;4964004;28;20560;-69
2022/10/23 06:56:36;;;;;;;27.40;19.65;;;10.30;99.90;;;;;;4964034;28;20053;-69
2022/10/23 06:59:02;;;;;;;28.42;20.55;;;10.30;99.90;;;;;;4963205;28;20101;-69
2022/10/23 07:01:28;;;;;;;28.80;20.77;;;10.20;99.90;;;;;;4963580;28;20050;-70
2022/10/23 07:03:54;;;;;;;30.75;21.63;;;10.30;99.90;;;;;;4964581;28;20047;-69
2022/10/23 07:06:19;;;;;;;30.98;22.15;;;10.30;99.90;;;;;;4946608;28;20054;-69
2022/10/23 07:08:45;;;;;;;32.83;21.52;;;10.40;99.90;;;;;;4963655;28;20093;-68
2022/10/23 07:11:11;;;;;;;26.48;20.25;;;10.40;99.90;;;;;;4964404;28;20132;-69
2022/10/23 07:13:37;;;;;;;27.58;20.58;;;10.30;99.90;;;;;;4963039;28;20146;-69
2022/10/23 07:16:20;;;;;;;28.95;20.25;;;10.30;99.90;;;;;;4946405;28;20051;-69
2022/10/23 07:18:47;;;;;;;27.23;19.70;;;10.30;99.90;;;;;;4946858;28;20142;-69
2022/10/23 07:21:14;;;;;;;25.08;18.98;;;10.60;99.90;;;;;;4963968;28;20045;-69
2022/10/23 07:23:40;;;;;;;27.05;19.38;;;10.40;99.90;;;;;;4946688;28;20051;-69
2022/10/23 07:26:07;;;;;;;30.45;20.38;;;10.40;99.90;;;;;;4945942;28;20575;-69
2022/10/23 07:28:32;;;;;;;28.33;20.10;;;10.40;99.90;;;;;;4963145;28;20047;-70
2022/10/23 07:30:59;;;;;;;31.23;19.48;;;10.50;99.90;;;;;;4964389;28;20042;-69
2022/10/23 07:33:25;;;;;;;26.92;19.13;;;10.40;99.90;;;;;;4963793;28;20394;-69
2022/10/23 07:35:50;;;;;;;28.45;19.98;;;10.50;99.90;;;;;;4964666;28;20043;-69
2022/10/23 07:38:16;;;;;;;28.25;19.45;;;10.50;99.90;;;;;;4946703;28;20085;-69
2022/10/23 07:40:43;;;;;;;27.00;19.08;;;10.70;99.90;;;;;;4964431;28;20125;-69
2022/10/23 07:43:09;;;;;;;27.10;18.83;;;10.60;99.90;;;;;;4963246;28;20115;-69
2022/10/23 07:45:34;;;;;;;25.50;19.05;;;10.60;99.90;;;;;;4947010;28;20518;-69
2022/10/23 07:48:00;;;;;;;25.35;18.80;;;10.60;99.90;;;;;;4964028;28;20043;-69
2022/10/23 07:50:25;;;;;;;23.17;17.42;;;10.70;99.90;;;;;;4964104;28;20402;-70
2022/10/23 07:52:51;;;;;;;25.23;18.02;;;10.70;99.90;;;;;;4964176;28;20043;-69
2022/10/23 07:55:17;;;;;;;25.27;17.40;;;10.70;99.90;;;;;;4947112;28;20051;-69
2022/10/23 07:57:43;;;;;;;24.90;16.42;;;10.70;99.90;;;;;;4963029;28;20047;-69
2022/10/23 08:00:10;;;;;;;20.17;16.40;;;10.70;99.90;;;;;;4973702;28;20050;-69
2022/10/23 08:02:36;;;;;;;23.63;16.50;;;10.80;99.90;;;;;;4986921;28;20046;-69
2022/10/23 08:05:02;;;;;;;21.10;16.23;;;11.00;99.90;;;;;;4994105;28;20035;-69
2022/10/23 08:07:28;;;;;;;27.02;15.82;;;11.00;99.90;;;;;;4967085;28;20051;-68
2022/10/23 08:09:53;;;;;;;22.05;15.13;;;11.00;99.90;;;;;;4967615;28;21128;-69
2022/10/23 08:12:19;;;;;;;22.25;14.85;;;11.10;99.90;;;;;;4966963;28;20210;-69
2022/10/23 08:14:45;;;;;;;23.15;15.18;;;11.00;99.90;;;;;;4966473;28;20076;-69
2022/10/23 08:17:10;;;;;;;21.02;14.35;;;11.00;99.90;;;;;;4966142;28;20444;-69
2022/10/23 08:19:36;;;;;;;21.40;15.35;;;11.10;99.90;;;;;;4967348;28;20058;-69
2022/10/23 08:22:02;;;;;;;24.75;14.90;;;11.30;99.90;;;;;;4949929;28;20043;-69
2022/10/23 08:24:28;;;;;;;22.08;14.85;;;11.20;99.90;;;;;;4967108;28;20074;-69
2022/10/23 08:26:54;;;;;;;23.00;14.57;;;11.40;99.90;;;;;;4966144;28;20269;-68
2022/10/23 08:29:20;;;;;;;18.85;14.20;;;11.50;99.90;;;;;;4966189;28;20107;-69
2022/10/23 08:31:45;;;;;;;20.83;14.70;;;11.50;99.90;;;;;;4966922;28;20118;-69
2022/10/23 08:34:12;;;;;;;22.73;14.85;;;11.50;99.90;;;;;;4966460;28;20121;-69
2022/10/23 08:36:38;;;;;;;16.90;13.73;;;11.60;99.90;;;;;;4966624;28;20470;-69
2022/10/23 08:39:04;;;;;;;20.90;14.35;;;11.70;99.90;;;;;;4966751;28;20045;-69
2022/10/23 08:41:37;;;;;;;19.63;13.63;;;11.50;99.90;;;;;;4966951;28;20061;-69
2022/10/23 08:44:31;;;;;;;17.83;13.40;;;11.70;99.90;;;;;;4965681;28;20242;-69
2022/10/23 08:47:09;;;;;;;19.23;13.57;;;11.80;99.90;;;;;;4966029;28;20061;-69
2022/10/23 08:49:54;;;;;;;22.23;13.82;;;12.00;99.90;;;;;;4966974;28;20039;-69
2022/10/23 08:52:38;;;;;;;20.00;14.13;;;11.80;99.90;;;;;;4932202;28;20514;-69
2022/10/23 08:55:20;;;;;;;19.55;15.00;;;12.00;99.90;;;;;;4967027;28;20446;-69
2022/10/23 08:57:55;;;;;;;18.65;15.10;;;12.00;99.90;;;;;;4965540;28;20051;-69
2022/10/23 09:00:20;;;;;;;21.77;15.90;;;12.10;99.90;;;;;;4966636;28;20062;-70
2022/10/23 09:02:51;;;;;;;24.08;15.32;;;12.10;99.90;;;;;;4966425;28;20043;-69
2022/10/23 09:05:34;;;;;;;23.83;15.07;;;12.20;99.90;;;;;;4958615;28;20257;-69
2022/10/23 09:08:23;;;;;;;21.40;14.85;;;12.30;99.90;;;;;;4967116;28;20089;-70
2022/10/23 09:11:01;;;;;;;17.63;13.82;;;12.60;99.90;;;;;;4966080;28;20054;-67
2022/10/23 09:13:33;;;;;;;16.23;13.63;;;12.50;99.90;;;;;;4965968;28;20081;-69
2022/10/23 09:16:37;;;;;;;19.35;14.27;;;12.60;99.90;;;;;;4966823;28;20203;-70
2022/10/23 09:19:13;;;;;;;18.15;13.50;;;12.70;99.90;;;;;;4923999;28;20815;-70
2022/10/23 09:21:39;;;;;;;18.00;13.30;;;12.70;99.90;;;;;;4966362;28;20061;-69
2022/10/23 09:24:05;;;;;;;15.25;12.88;;;12.90;99.90;;;;;;4966491;28;20390;-70
2022/10/23 09:26:30;;;;;;;18.40;12.93;;;12.90;99.90;;;;;;4947899;28;20222;-69
2022/10/23 09:29:06;;;;;;;19.25;12.88;;;12.80;99.90;;;;;;4957218;28;20042;-68
2022/10/23 09:31:32;;;;;;;17.90;12.68;;;13.00;99.90;;;;;;4964998;28;20178;-68
2022/10/23 09:34:00;;;;;;;17.23;11.82;;;13.30;99.90;;;;;;4964510;28;20118;-68
2022/10/23 09:36:28;;;;;;;15.05;12.27;;;13.50;99.90;;;;;;4965448;28;20039;-69
2022/10/23 09:38:57;;;;;;;16.02;11.68;;;13.60;99.90;;;;;;4965556;28;20043;-68
2022/10/23 09:41:42;;;;;;;15.25;10.95;;;13.50;99.90;;;;;;4964618;28;20047;-69
2022/10/23 09:44:07;;;;;;;19.70;11.02;;;13.60;99.90;;;;;;4964494;28;20047;-69
2022/10/23 09:46:39;;;;;;;17.17;10.40;;;13.80;99.90;;;;;;4965163;28;20047;-69
2022/10/23 09:49:06;;;;;;;14.25;10.77;;;13.80;99.90;;;;;;4965119;28;20070;-69
2022/10/23 09:51:32;;;;;;;13.88;10.57;;;13.60;99.90;;;;;;4965433;28;20430;-69
2022/10/23 09:54:00;;;;;;;16.02;12.13;;;13.80;99.90;;;;;;4964891;28;20134;-69
2022/10/23 09:56:34;;;;;;;14.18;11.05;;;14.20;99.90;;;;;;4964473;28;20051;-70
2022/10/23 09:59:12;;;;;;;15.13;10.65;;;14.50;99.90;;;;;;4964500;28;20039;-69
2022/10/23 10:01:48;;;;;;;16.10;10.45;;;14.80;99.90;;;;;;4962536;28;20126;-68
2022/10/23 10:04:14;;;;;;;15.13;10.43;;;14.90;99.90;;;;;;4963889;28;20053;-69
2022/10/23 10:06:39;;;;;;;13.45;9.68;;;15.10;99.90;;;;;;4964007;28;20042;-69
2022/10/23 10:09:12;;;;;;;18.10;9.55;;;15.10;99.90;;;;;;4964316;28;20035;-68
2022/10/23 10:12:25;;;;;;;12.88;9.43;;;14.90;99.90;;;;;;4964480;28;20121;-68
2022/10/23 10:15:11;;;;;;;10.70;9.18;;;14.70;99.90;;;;;;4956863;28;20050;-68
2022/10/23 10:17:52;;;;;;;13.70;9.80;;;14.50;99.90;;;;;;4924077;28;20051;-68
2022/10/23 10:20:55;;;;;;;15.60;9.57;;;14.40;99.90;;;;;;4964706;28;20057;-68
2022/10/23 10:23:27;;;;;;;14.32;9.30;;;14.80;99.90;;;;;;4870138;29;20115;-68
2022/10/23 10:26:33;;;;;;;11.95;8.80;;;14.60;99.90;;;;;;4934555;28;20063;-68
2022/10/23 10:29:37;;;;;;;13.93;9.13;;;14.60;99.90;;;;;;4926886;28;20062;-68
2022/10/23 10:32:18;;;;;;;15.45;8.93;;;15.00;99.90;;;;;;4927388;28;20069;-69
2022/10/23 10:34:54;;;;;;;13.93;8.68;;;15.00;99.90;;;;;;4962164;28;20602;-69
2022/10/23 10:37:48;;;;;;;12.57;8.35;;;15.30;99.90;;;;;;4963747;28;20051;-70
2022/10/23 10:40:34;;;;;;;14.55;7.93;;;15.30;99.90;;;;;;4961630;28;20059;-69
2022/10/23 10:43:05;;;;;;;11.75;7.03;;;15.30;99.90;;;;;;4963119;28;20050;-70
2022/10/23 10:45:43;;;;;;;11.90;7.03;;;15.70;99.90;;;;;;4963109;28;20105;-69
2022/10/23 10:49:00;;;;;;;11.90;7.43;;;15.50;99.90;;;;;;4964082;28;20051;-66
2022/10/23 10:51:48;;;;;;;11.73;7.30;;;15.70;99.90;;;;;;4866087;29;20049;-67
2022/10/23 10:54:47;;;;;;;12.68;7.18;;;15.50;99.90;;;;;;4864621;29;20053;-67
2022/10/23 10:57:33;;;;;;;13.05;7.35;;;15.70;99.90;;;;;;4951112;28;20055;-67
2022/10/23 11:00:26;;;;;;;10.50;7.20;;;15.80;99.90;;;;;;4963921;28;20047;-67
2022/10/23 11:03:27;;;;;;;11.45;7.47;;;15.80;99.90;;;;;;4960112;28;20414;-67
2022/10/23 11:05:55;;;;;;;17.95;7.90;;;15.80;99.90;;;;;;4962512;28;20141;-67
2022/10/23 11:08:37;;;;;;;11.38;7.68;;;15.80;99.90;;;;;;4946478;28;20064;-67
2022/10/23 11:11:12;;;;;;;12.05;7.53;;;15.50;99.90;;;;;;4963528;28;20056;-70
2022/10/23 11:13:40;;;;;;;13.30;7.53;;;15.60;99.90;;;;;;4963203;28;20312;-67
2022/10/23 11:16:16;;;;;;;11.55;7.65;;;15.50;99.90;;;;;;4964228;28;20066;-64
2022/10/23 11:18:45;;;;;;;11.18;8.00;;;15.50;99.90;;;;;;4955821;28;20061;-64
2022/10/23 11:21:21;;;;;;;13.75;7.60;;;15.50;99.90;;;;;;4945513;28;20101;-65
2022/10/23 11:24:01;;;;;;;12.18;7.53;;;15.60;99.90;;;;;;4964535;28;20367;-64
2022/10/23 11:27:02;;;;;;;10.93;7.70;;;15.60;99.90;;;;;;4946456;28;20054;-64
2022/10/23 11:29:30;;;;;;;15.50;7.80;;;15.60;99.90;;;;;;4963542;28;20174;-64
2022/10/23 11:32:33;;;;;;;16.80;7.78;;;15.60;99.90;;;;;;4963899;28;20057;-64
2022/10/23 11:35:36;;;;;;;13.70;8.02;;;15.50;99.90;;;;;;4968800;28;20401;-64
2022/10/23 11:38:28;;;;;;;17.38;8.10;;;15.40;99.90;;;;;;4967898;28;20051;-64
2022/10/23 11:40:58;;;;;;;12.23;7.50;;;15.60;99.90;;;;;;4968834;28;20039;-68
2022/10/23 11:43:28;;;;;;;12.57;8.00;;;15.50;99.90;;;;;;4966851;28;20051;-65
2022/10/23 11:45:54;;;;;;;14.18;8.73;;;15.60;99.90;;;;;;4968138;28;20035;-65
2022/10/23 11:48:42;;;;;;;10.27;7.53;;;15.50;99.90;;;;;;4967957;28;20426;-65
2022/10/23 11:51:30;;;;;;;12.35;8.30;;;15.60;99.90;;;;;;4950622;28;20050;-64
2022/10/23 11:54:14;;;;;;;12.25;7.95;;;15.70;99.90;;;;;;4967919;28;20047;-65
2022/10/23 11:57:11;;;;;;;9.85;7.20;;;15.70;99.90;;;;;;4968105;28;20095;-64
2022/10/23 11:59:50;;;;;;;10.02;7.55;;;15.60;99.90;;;;;;4967910;28;20051;-65
2022/10/23 12:02:37;;;;;;;13.73;8.30;;;15.60;99.90;;;;;;4967356;28;20045;-64
2022/10/23 12:05:24;;;;;;;13.40;7.53;;;15.60;99.90;;;;;;4967532;28;20126;-65
2022/10/23 12:07:58;;;;;;;14.02;7.22;;;15.50;99.90;;;;;;4959566;28;20050;-65
2022/10/23 12:10:33;;;;;;;11.25;7.50;;;15.50;99.90;;;;;;4967126;28;20046;-65
2022/10/23 12:13:04;;;;;;;10.10;7.28;;;15.40;99.90;;;;;;4949845;28;20505;-65
2022/10/23 12:15:32;;;;;;;8.30;6.00;;;15.50;99.90;;;;;;4966769;28;20042;-65
2022/10/23 12:18:15;;;;;;;10.63;6.68;;;15.60;99.90;;;;;;4967710;28;20791;-65
2022/10/23 12:21:00;;;;;;;15.52;7.40;;;15.60;99.90;;;;;;4967465;28;20073;-64
2022/10/23 12:23:41;;;;;;;14.52;7.32;;;15.60;99.90;;;;;;4967463;28;20042;-65
2022/10/23 12:26:15;;;;;;;14.23;6.68;;;15.60;99.90;;;;;;4949962;28;20131;-64
2022/10/23 12:29:00;;;;;;;;;;;15.50;99.90;;;;;;4949568;28;20129;-64
2022/10/23 12:31:58;;;;;;;11.90;6.78;;;15.60;99.90;;;;;;4966708;28;20631;-64
2022/10/23 12:34:47;;;;;;;10.05;6.38;;;15.80;99.90;;;;;;4966604;28;20054;-64
2022/10/23 12:37:22;;;;;;;12.02;6.57;;;15.70;99.90;;;;;;4967437;28;20043;-64
2022/10/23 12:39:54;;;;;;;;;;;15.60;99.90;;;;;;4967164;28;20125;-65
2022/10/23 12:42:22;;;;;;;12.05;6.10;;;15.60;99.90;;;;;;4966580;28;19921;-65
2022/10/23 12:45:18;;;;;;;11.27;6.50;;;15.80;99.90;;;;;;4966331;28;20102;-65
2022/10/23 12:47:46;;;;;;;14.75;6.35;;;15.70;99.90;;;;;;4961815;28;20247;-65
2022/10/23 12:50:22;;;;;;;13.70;5.82;;;15.90;99.90;;;;;;4967779;28;20106;-61
2022/10/23 12:52:52;;;;;;;13.32;6.68;;;15.70;99.90;;;;;;4949654;28;21127;-64
2022/10/23 12:55:18;;;;;;;11.65;5.97;;;15.80;99.90;;;;;;4966759;28;20066;-65